sensor_id;sensor_type;location;lat;lon;timestamp;temperature;humidity
74534;SHT31;63012;51.096;-115.366;2022-09-12T00:01:35;24.05;41.89
74534;SHT31;63012;51.096;-115.366;2022-09-12T00:04:02;24.06;41.92
74534;SHT31;63012;51.096;-115.366;2022-09-12T00:06:31;24.07;41.98
74534;SHT31;63012;51.096;-115.366;2022-09-12T00:09:03;24.08;42.01
74534;SHT31;63012;51.096;-115.366;2022-09-12T00:11:37;24.09;42.07
74534;SHT31;63012;51.096;-115.366;2022-09-12T00:14:08;24.09;42.09
74534;SHT31;63012;51.096;-115.366;2022-09-12T00:16:39;24.11;42.12
74534;SHT31;63012;51.096;-115.366;2022-09-12T00:19:08;24.11;42.19
74534;SHT31;63012;51.096;-115.366;2022-09-12T00:21:38;24.12;42.26
74534;SHT31;63012;51.096;-115.366;2022-09-12T00:24:16;24.13;42.31
74534;SHT31;63012;51.096;-115.366;2022-09-12T00:26:47;24.15;42.38
74534;SHT31;63012;51.096;-115.366;2022-09-12T00:29:18;24.14;42.41
74534;SHT31;63012;51.096;-115.366;2022-09-12T00:31:47;24.16;42.47
74534;SHT31;63012;51.096;-115.366;2022-09-12T00:34:14;24.16;42.48
74534;SHT31;63012;51.096;-115.366;2022-09-12T00:36:42;24.18;42.51
74534;SHT31;63012;51.096;-115.366;2022-09-12T00:39:11;24.18;42.53
74534;SHT31;63012;51.096;-115.366;2022-09-12T00:41:44;24.19;42.55
74534;SHT31;63012;51.096;-115.366;2022-09-12T00:46:55;24.20;42.56
74534;SHT31;63012;51.096;-115.366;2022-09-12T00:49:33;24.22;42.56
74534;SHT31;63012;51.096;-115.366;2022-09-12T00:52:12;24.22;42.55
74534;SHT31;63012;51.096;-115.366;2022-09-12T00:55:11;24.23;42.55
74534;SHT31;63012;51.096;-115.366;2022-09-12T00:57:55;24.22;42.53
74534;SHT31;63012;51.096;-115.366;2022-09-12T01:00:36;24.24;42.51
74534;SHT31;63012;51.096;-115.366;2022-09-12T01:03:16;24.24;42.52
74534;SHT31;63012;51.096;-115.366;2022-09-12T01:08:50;24.25;42.52
74534;SHT31;63012;51.096;-115.366;2022-09-12T01:11:20;24.24;42.50
74534;SHT31;63012;51.096;-115.366;2022-09-12T01:13:48;24.25;42.50
74534;SHT31;63012;51.096;-115.366;2022-09-12T01:16:16;24.25;42.50
74534;SHT31;63012;51.096;-115.366;2022-09-12T01:22:35;24.26;42.48
74534;SHT31;63012;51.096;-115.366;2022-09-12T01:28:22;24.26;42.50
74534;SHT31;63012;51.096;-115.366;2022-09-12T01:31:36;24.25;42.50
74534;SHT31;63012;51.096;-115.366;2022-09-12T01:40:57;24.26;42.50
74534;SHT31;63012;51.096;-115.366;2022-09-12T01:43:35;24.26;42.50
74534;SHT31;63012;51.096;-115.366;2022-09-12T01:49:12;24.26;42.50
74534;SHT31;63012;51.096;-115.366;2022-09-12T01:55:11;24.26;42.50
74534;SHT31;63012;51.096;-115.366;2022-09-12T01:57:55;24.25;42.50
74534;SHT31;63012;51.096;-115.366;2022-09-12T02:00:46;24.25;42.52
74534;SHT31;63012;51.096;-115.366;2022-09-12T02:03:26;24.25;42.50
74534;SHT31;63012;51.096;-115.366;2022-09-12T02:06:18;24.25;42.50
74534;SHT31;63012;51.096;-115.366;2022-09-12T02:08:56;24.25;42.51
74534;SHT31;63012;51.096;-115.366;2022-09-12T02:11:34;24.25;42.50
74534;SHT31;63012;51.096;-115.366;2022-09-12T02:14:19;24.24;42.50
74534;SHT31;63012;51.096;-115.366;2022-09-12T02:17:09;24.24;42.51
74534;SHT31;63012;51.096;-115.366;2022-09-12T02:22:45;24.24;42.50
74534;SHT31;63012;51.096;-115.366;2022-09-12T02:25:16;24.24;42.50
74534;SHT31;63012;51.096;-115.366;2022-09-12T02:28:33;24.24;42.52
74534;SHT31;63012;51.096;-115.366;2022-09-12T02:31:07;24.24;42.51
74534;SHT31;63012;51.096;-115.366;2022-09-12T02:34:03;24.25;42.58
74534;SHT31;63012;51.096;-115.366;2022-09-12T02:40:28;24.23;42.53
74534;SHT31;63012;51.096;-115.366;2022-09-12T02:42:58;24.23;42.52
74534;SHT31;63012;51.096;-115.366;2022-09-12T02:45:48;24.23;42.53
74534;SHT31;63012;51.096;-115.366;2022-09-12T02:48:21;24.23;42.52
74534;SHT31;63012;51.096;-115.366;2022-09-12T02:51:03;24.23;42.57
74534;SHT31;63012;51.096;-115.366;2022-09-12T02:53:34;24.23;42.57
74534;SHT31;63012;51.096;-115.366;2022-09-12T02:56:16;24.22;42.55
74534;SHT31;63012;51.096;-115.366;2022-09-12T02:58:51;24.22;42.57
74534;SHT31;63012;51.096;-115.366;2022-09-12T03:14:34;24.18;42.49
74534;SHT31;63012;51.096;-115.366;2022-09-12T03:17:34;24.19;42.47
74534;SHT31;63012;51.096;-115.366;2022-09-12T03:20:14;24.19;42.50
74534;SHT31;63012;51.096;-115.366;2022-09-12T03:23:02;24.18;42.52
74534;SHT31;63012;51.096;-115.366;2022-09-12T03:25:50;24.18;42.55
74534;SHT31;63012;51.096;-115.366;2022-09-12T03:28:34;24.17;42.60
74534;SHT31;63012;51.096;-115.366;2022-09-12T03:31:14;24.17;42.59
74534;SHT31;63012;51.096;-115.366;2022-09-12T03:33:43;24.17;42.58
74534;SHT31;63012;51.096;-115.366;2022-09-12T03:36:15;24.17;42.56
74534;SHT31;63012;51.096;-115.366;2022-09-12T03:38:51;24.17;42.55
74534;SHT31;63012;51.096;-115.366;2022-09-12T03:41:19;24.17;42.58
74534;SHT31;63012;51.096;-115.366;2022-09-12T03:43:46;24.16;42.54
74534;SHT31;63012;51.096;-115.366;2022-09-12T03:46:14;24.16;42.53
74534;SHT31;63012;51.096;-115.366;2022-09-12T03:48:41;24.16;42.52
74534;SHT31;63012;51.096;-115.366;2022-09-12T03:51:11;24.16;42.58
74534;SHT31;63012;51.096;-115.366;2022-09-12T03:53:38;24.15;42.54
74534;SHT31;63012;51.096;-115.366;2022-09-12T03:56:11;24.15;42.55
74534;SHT31;63012;51.096;-115.366;2022-09-12T03:58:39;24.15;42.60
74534;SHT31;63012;51.096;-115.366;2022-09-12T04:01:07;24.14;42.60
74534;SHT31;63012;51.096;-115.366;2022-09-12T04:03:43;24.13;42.61
74534;SHT31;63012;51.096;-115.366;2022-09-12T04:06:15;24.13;42.61
74534;SHT31;63012;51.096;-115.366;2022-09-12T04:08:48;24.12;42.63
74534;SHT31;63012;51.096;-115.366;2022-09-12T04:11:18;24.13;42.63
74534;SHT31;63012;51.096;-115.366;2022-09-12T04:13:47;24.12;42.65
74534;SHT31;63012;51.096;-115.366;2022-09-12T04:16:15;24.11;42.69
74534;SHT31;63012;51.096;-115.366;2022-09-12T04:18:43;24.11;42.61
74534;SHT31;63012;51.096;-115.366;2022-09-12T04:21:15;24.10;42.70
74534;SHT31;63012;51.096;-115.366;2022-09-12T04:23:46;24.11;42.71
74534;SHT31;63012;51.096;-115.366;2022-09-12T04:26:14;24.10;42.72
74534;SHT31;63012;51.096;-115.366;2022-09-12T04:28:42;24.10;42.76
74534;SHT31;63012;51.096;-115.366;2022-09-12T04:31:12;24.09;42.75
74534;SHT31;63012;51.096;-115.366;2022-09-12T04:33:43;24.09;42.76
74534;SHT31;63012;51.096;-115.366;2022-09-12T04:36:12;24.08;42.71
74534;SHT31;63012;51.096;-115.366;2022-09-12T04:38:50;24.08;42.70
74534;SHT31;63012;51.096;-115.366;2022-09-12T04:41:19;24.07;42.70
74534;SHT31;63012;51.096;-115.366;2022-09-12T04:43:56;24.07;42.70
74534;SHT31;63012;51.096;-115.366;2022-09-12T04:46:31;24.07;42.70
74534;SHT31;63012;51.096;-115.366;2022-09-12T04:49:01;24.05;42.70
74534;SHT31;63012;51.096;-115.366;2022-09-12T04:51:31;24.05;42.72
74534;SHT31;63012;51.096;-115.366;2022-09-12T04:54:02;24.04;42.73
74534;SHT31;63012;51.096;-115.366;2022-09-12T04:56:37;24.04;42.79
74534;SHT31;63012;51.096;-115.366;2022-09-12T04:59:07;24.04;42.76
74534;SHT31;63012;51.096;-115.366;2022-09-12T05:01:35;24.02;42.75
74534;SHT31;63012;51.096;-115.366;2022-09-12T05:04:03;24.02;42.73
74534;SHT31;63012;51.096;-115.366;2022-09-12T05:06:31;24.01;42.78
74534;SHT31;63012;51.096;-115.366;2022-09-12T05:09:02;24.01;42.80
74534;SHT31;63012;51.096;-115.366;2022-09-12T05:11:33;24.00;42.81
74534;SHT31;63012;51.096;-115.366;2022-09-12T05:14:03;24.00;42.83
74534;SHT31;63012;51.096;-115.366;2022-09-12T05:16:32;24.00;42.85
74534;SHT31;63012;51.096;-115.366;2022-09-12T05:19:00;23.98;42.88
74534;SHT31;63012;51.096;-115.366;2022-09-12T05:21:27;23.98;42.88
74534;SHT31;63012;51.096;-115.366;2022-09-12T05:23:55;23.98;42.90
74534;SHT31;63012;51.096;-115.366;2022-09-12T05:26:27;23.97;42.90
74534;SHT31;63012;51.096;-115.366;2022-09-12T05:28:54;23.97;42.88
74534;SHT31;63012;51.096;-115.366;2022-09-12T05:31:26;23.96;42.90
74534;SHT31;63012;51.096;-115.366;2022-09-12T05:33:54;23.96;42.85
74534;SHT31;63012;51.096;-115.366;2022-09-12T05:36:25;23.95;42.89
74534;SHT31;63012;51.096;-115.366;2022-09-12T05:38:55;23.96;42.88
74534;SHT31;63012;51.096;-115.366;2022-09-12T05:41:32;23.94;42.87
74534;SHT31;63012;51.096;-115.366;2022-09-12T05:44:04;23.94;42.88
74534;SHT31;63012;51.096;-115.366;2022-09-12T05:46:37;23.93;42.87
74534;SHT31;63012;51.096;-115.366;2022-09-12T05:49:08;23.92;42.85
74534;SHT31;63012;51.096;-115.366;2022-09-12T05:51:39;23.92;42.88
74534;SHT31;63012;51.096;-115.366;2022-09-12T05:54:11;23.91;42.89
74534;SHT31;63012;51.096;-115.366;2022-09-12T05:56:42;23.91;42.88
74534;SHT31;63012;51.096;-115.366;2022-09-12T05:59:11;23.90;42.87
74534;SHT31;63012;51.096;-115.366;2022-09-12T06:01:50;23.89;42.90
74534;SHT31;63012;51.096;-115.366;2022-09-12T06:04:24;23.89;42.91
74534;SHT31;63012;51.096;-115.366;2022-09-12T06:06:52;23.88;42.97
74534;SHT31;63012;51.096;-115.366;2022-09-12T06:09:20;23.87;42.99
74534;SHT31;63012;51.096;-115.366;2022-09-12T06:11:50;23.87;42.99
74534;SHT31;63012;51.096;-115.366;2022-09-12T06:14:20;23.87;43.00
74534;SHT31;63012;51.096;-115.366;2022-09-12T06:16:48;23.86;43.05
74534;SHT31;63012;51.096;-115.366;2022-09-12T06:19:16;23.86;43.08
74534;SHT31;63012;51.096;-115.366;2022-09-12T06:21:55;23.85;43.09
74534;SHT31;63012;51.096;-115.366;2022-09-12T06:24:23;23.85;43.07
74534;SHT31;63012;51.096;-115.366;2022-09-12T06:26:50;23.84;43.04
74534;SHT31;63012;51.096;-115.366;2022-09-12T06:29:27;23.84;43.01
74534;SHT31;63012;51.096;-115.366;2022-09-12T06:31:57;23.83;43.01
74534;SHT31;63012;51.096;-115.366;2022-09-12T06:34:44;23.83;43.04
74534;SHT31;63012;51.096;-115.366;2022-09-12T06:37:21;23.82;43.05
74534;SHT31;63012;51.096;-115.366;2022-09-12T06:40:11;23.82;43.03
74534;SHT31;63012;51.096;-115.366;2022-09-12T06:42:38;23.81;43.03
74534;SHT31;63012;51.096;-115.366;2022-09-12T06:45:12;23.81;43.05
74534;SHT31;63012;51.096;-115.366;2022-09-12T06:47:41;23.80;43.04
74534;SHT31;63012;51.096;-115.366;2022-09-12T06:50:11;23.80;43.05
74534;SHT31;63012;51.096;-115.366;2022-09-12T06:52:56;23.80;43.04
74534;SHT31;63012;51.096;-115.366;2022-09-12T06:55:24;23.80;43.05
74534;SHT31;63012;51.096;-115.366;2022-09-12T06:57:58;23.79;43.09
74534;SHT31;63012;51.096;-115.366;2022-09-12T07:00:26;23.79;43.08
74534;SHT31;63012;51.096;-115.366;2022-09-12T07:03:16;23.79;43.10
74534;SHT31;63012;51.096;-115.366;2022-09-12T07:05:55;23.78;43.10
74534;SHT31;63012;51.096;-115.366;2022-09-12T07:08:46;23.77;43.13
74534;SHT31;63012;51.096;-115.366;2022-09-12T07:11:18;23.77;43.14
74534;SHT31;63012;51.096;-115.366;2022-09-12T07:13:51;23.76;43.15
74534;SHT31;63012;51.096;-115.366;2022-09-12T07:16:21;23.76;43.19
74534;SHT31;63012;51.096;-115.366;2022-09-12T07:18:51;23.76;43.14
74534;SHT31;63012;51.096;-115.366;2022-09-12T07:21:27;23.75;43.13
74534;SHT31;63012;51.096;-115.366;2022-09-12T07:24:09;23.75;43.11
74534;SHT31;63012;51.096;-115.366;2022-09-12T07:26:50;23.75;43.16
74534;SHT31;63012;51.096;-115.366;2022-09-12T07:29:21;23.73;43.17
74534;SHT31;63012;51.096;-115.366;2022-09-12T07:31:51;23.73;43.17
74534;SHT31;63012;51.096;-115.366;2022-09-12T07:34:19;23.72;43.20
74534;SHT31;63012;51.096;-115.366;2022-09-12T07:36:46;23.70;43.20
74534;SHT31;63012;51.096;-115.366;2022-09-12T07:39:13;23.71;43.20
74534;SHT31;63012;51.096;-115.366;2022-09-12T07:41:50;23.71;43.20
74534;SHT31;63012;51.096;-115.366;2022-09-12T07:44:17;23.71;43.20
74534;SHT31;63012;51.096;-115.366;2022-09-12T07:46:45;23.69;43.21
74534;SHT31;63012;51.096;-115.366;2022-09-12T07:49:15;23.69;43.21
74534;SHT31;63012;51.096;-115.366;2022-09-12T07:51:42;23.68;43.22
74534;SHT31;63012;51.096;-115.366;2022-09-12T07:54:21;23.67;43.22
74534;SHT31;63012;51.096;-115.366;2022-09-12T07:56:57;23.67;43.28
74534;SHT31;63012;51.096;-115.366;2022-09-12T07:59:24;23.67;43.30
74534;SHT31;63012;51.096;-115.366;2022-09-12T08:02:09;23.66;43.30
74534;SHT31;63012;51.096;-115.366;2022-09-12T08:04:38;23.65;43.30
74534;SHT31;63012;51.096;-115.366;2022-09-12T08:07:09;23.64;43.30
74534;SHT31;63012;51.096;-115.366;2022-09-12T08:09:37;23.65;43.32
74534;SHT31;63012;51.096;-115.366;2022-09-12T08:12:04;23.64;43.34
74534;SHT31;63012;51.096;-115.366;2022-09-12T08:14:32;23.64;43.34
74534;SHT31;63012;51.096;-115.366;2022-09-12T08:16:59;23.63;43.35
74534;SHT31;63012;51.096;-115.366;2022-09-12T08:19:26;23.63;43.34
74534;SHT31;63012;51.096;-115.366;2022-09-12T08:21:53;23.62;43.32
74534;SHT31;63012;51.096;-115.366;2022-09-12T08:24:21;23.61;43.33
74534;SHT31;63012;51.096;-115.366;2022-09-12T08:26:49;23.61;43.34
74534;SHT31;63012;51.096;-115.366;2022-09-12T08:29:16;23.60;43.35
74534;SHT31;63012;51.096;-115.366;2022-09-12T08:31:52;23.60;43.34
74534;SHT31;63012;51.096;-115.366;2022-09-12T08:34:23;23.59;43.37
74534;SHT31;63012;51.096;-115.366;2022-09-12T08:36:50;23.58;43.39
74534;SHT31;63012;51.096;-115.366;2022-09-12T08:39:20;23.58;43.38
74534;SHT31;63012;51.096;-115.366;2022-09-12T08:41:55;23.58;43.39
74534;SHT31;63012;51.096;-115.366;2022-09-12T08:47:42;23.56;43.40
74534;SHT31;63012;51.096;-115.366;2022-09-12T08:55:46;23.54;43.42
74534;SHT31;63012;51.096;-115.366;2022-09-12T08:58:26;23.53;43.45
74534;SHT31;63012;51.096;-115.366;2022-09-12T09:00:59;23.52;43.45
74534;SHT31;63012;51.096;-115.366;2022-09-12T09:04:00;23.51;43.49
74534;SHT31;63012;51.096;-115.366;2022-09-12T09:16:42;23.48;43.50
74534;SHT31;63012;51.096;-115.366;2022-09-12T09:19:17;23.48;43.51
74534;SHT31;63012;51.096;-115.366;2022-09-12T09:24:54;23.46;43.51
74534;SHT31;63012;51.096;-115.366;2022-09-12T09:27:32;23.47;43.53
74534;SHT31;63012;51.096;-115.366;2022-09-12T09:30:26;23.46;43.54
74534;SHT31;63012;51.096;-115.366;2022-09-12T09:33:09;23.45;43.52
74534;SHT31;63012;51.096;-115.366;2022-09-12T09:35:50;23.45;43.53
74534;SHT31;63012;51.096;-115.366;2022-09-12T09:39:05;23.44;43.54
74534;SHT31;63012;51.096;-115.366;2022-09-12T09:45:17;23.42;43.58
74534;SHT31;63012;51.096;-115.366;2022-09-12T09:50:42;23.41;43.58
74534;SHT31;63012;51.096;-115.366;2022-09-12T09:56:25;23.40;43.52
74534;SHT31;63012;51.096;-115.366;2022-09-12T09:59:08;23.40;43.51
74534;SHT31;63012;51.096;-115.366;2022-09-12T10:05:15;23.40;43.53
74534;SHT31;63012;51.096;-115.366;2022-09-12T10:07:53;23.39;43.51
74534;SHT31;63012;51.096;-115.366;2022-09-12T10:10:34;23.39;43.51
74534;SHT31;63012;51.096;-115.366;2022-09-12T10:13:21;23.39;43.52
74534;SHT31;63012;51.096;-115.366;2022-09-12T10:16:08;23.38;43.55
74534;SHT31;63012;51.096;-115.366;2022-09-12T10:18:47;23.38;43.55
74534;SHT31;63012;51.096;-115.366;2022-09-12T10:24:22;23.35;43.60
74534;SHT31;63012;51.096;-115.366;2022-09-12T10:27:21;23.33;43.60
74534;SHT31;63012;51.096;-115.366;2022-09-12T10:35:47;23.31;43.60
74534;SHT31;63012;51.096;-115.366;2022-09-12T10:38:23;23.30;43.60
74534;SHT31;63012;51.096;-115.366;2022-09-12T10:41:02;23.29;43.60
74534;SHT31;63012;51.096;-115.366;2022-09-12T10:43:38;23.28;43.61
74534;SHT31;63012;51.096;-115.366;2022-09-12T10:49:18;23.28;43.60
74534;SHT31;63012;51.096;-115.366;2022-09-12T10:52:47;23.26;43.60
74534;SHT31;63012;51.096;-115.366;2022-09-12T10:55:11;23.25;43.60
74534;SHT31;63012;51.096;-115.366;2022-09-12T11:07:47;23.23;43.61
74534;SHT31;63012;51.096;-115.366;2022-09-12T11:10:48;23.23;43.60
74534;SHT31;63012;51.096;-115.366;2022-09-12T11:14:36;23.21;43.61
74534;SHT31;63012;51.096;-115.366;2022-09-12T11:24:15;23.18;43.68
74534;SHT31;63012;51.096;-115.366;2022-09-12T11:30:15;23.15;43.71
74534;SHT31;63012;51.096;-115.366;2022-09-12T11:35:57;23.14;43.70
74534;SHT31;63012;51.096;-115.366;2022-09-12T11:38:45;23.13;43.70
74534;SHT31;63012;51.096;-115.366;2022-09-12T11:41:45;23.12;43.69
74534;SHT31;63012;51.096;-115.366;2022-09-12T11:44:33;23.12;43.70
74534;SHT31;63012;51.096;-115.366;2022-09-12T11:47:09;23.10;43.67
74534;SHT31;63012;51.096;-115.366;2022-09-12T11:50:13;23.11;43.70
74534;SHT31;63012;51.096;-115.366;2022-09-12T11:52:59;23.11;43.70
74534;SHT31;63012;51.096;-115.366;2022-09-12T11:56:07;23.10;43.70
74534;SHT31;63012;51.096;-115.366;2022-09-12T11:58:56;23.09;43.70
74534;SHT31;63012;51.096;-115.366;2022-09-12T12:01:38;23.09;43.71
74534;SHT31;63012;51.096;-115.366;2022-09-12T12:04:10;23.09;43.70
74534;SHT31;63012;51.096;-115.366;2022-09-12T12:06:54;23.08;43.70
74534;SHT31;63012;51.096;-115.366;2022-09-12T12:09:36;23.07;43.70
74534;SHT31;63012;51.096;-115.366;2022-09-12T12:12:20;23.06;43.70
74534;SHT31;63012;51.096;-115.366;2022-09-12T12:14:53;23.06;43.70
74534;SHT31;63012;51.096;-115.366;2022-09-12T12:17:24;23.05;43.70
74534;SHT31;63012;51.096;-115.366;2022-09-12T12:20:15;23.04;43.70
74534;SHT31;63012;51.096;-115.366;2022-09-12T12:22:50;23.03;43.70
74534;SHT31;63012;51.096;-115.366;2022-09-12T12:26:08;23.03;43.70
74534;SHT31;63012;51.096;-115.366;2022-09-12T12:31:15;23.01;43.70
74534;SHT31;63012;51.096;-115.366;2022-09-12T12:42:04;22.97;43.71
74534;SHT31;63012;51.096;-115.366;2022-09-12T12:50:42;22.94;43.78
74534;SHT31;63012;51.096;-115.366;2022-09-12T12:55:52;22.93;43.79
74534;SHT31;63012;51.096;-115.366;2022-09-12T13:01:37;22.91;43.80
74534;SHT31;63012;51.096;-115.366;2022-09-12T13:04:20;22.91;43.78
74534;SHT31;63012;51.096;-115.366;2022-09-12T13:06:57;22.91;43.80
74534;SHT31;63012;51.096;-115.366;2022-09-12T13:10:06;22.90;43.79
74534;SHT31;63012;51.096;-115.366;2022-09-12T13:12:30;22.88;43.80
74534;SHT31;63012;51.096;-115.366;2022-09-12T13:15:03;22.88;43.80
74534;SHT31;63012;51.096;-115.366;2022-09-12T13:18:16;22.87;43.78
74534;SHT31;63012;51.096;-115.366;2022-09-12T13:21:21;22.86;43.80
74534;SHT31;63012;51.096;-115.366;2022-09-12T13:24:31;22.86;43.80
74534;SHT31;63012;51.096;-115.366;2022-09-12T13:26:43;22.84;43.82
74534;SHT31;63012;51.096;-115.366;2022-09-12T13:29:25;22.84;43.82
74534;SHT31;63012;51.096;-115.366;2022-09-12T13:32:13;22.84;43.82
74534;SHT31;63012;51.096;-115.366;2022-09-12T13:35:00;22.83;43.91
74534;SHT31;63012;51.096;-115.366;2022-09-12T13:37:46;22.83;44.00
74534;SHT31;63012;51.096;-115.366;2022-09-12T13:40:53;22.81;44.02
74534;SHT31;63012;51.096;-115.366;2022-09-12T13:43:44;22.81;44.10
74534;SHT31;63012;51.096;-115.366;2022-09-12T13:46:41;22.80;44.16
74534;SHT31;63012;51.096;-115.366;2022-09-12T13:49:11;22.80;44.28
74534;SHT31;63012;51.096;-115.366;2022-09-12T13:52:23;22.79;44.33
74534;SHT31;63012;51.096;-115.366;2022-09-12T13:54:56;22.78;44.39
74534;SHT31;63012;51.096;-115.366;2022-09-12T14:00:24;22.77;44.47
74534;SHT31;63012;51.096;-115.366;2022-09-12T14:03:10;22.76;44.50
74534;SHT31;63012;51.096;-115.366;2022-09-12T14:06:48;22.74;44.53
74534;SHT31;63012;51.096;-115.366;2022-09-12T14:09:27;22.73;44.58
74534;SHT31;63012;51.096;-115.366;2022-09-12T14:12:03;22.72;44.60
74534;SHT31;63012;51.096;-115.366;2022-09-12T14:14:56;22.72;44.61
74534;SHT31;63012;51.096;-115.366;2022-09-12T14:17:54;22.71;44.68
74534;SHT31;63012;51.096;-115.366;2022-09-12T14:20:45;22.69;44.68
74534;SHT31;63012;51.096;-115.366;2022-09-12T14:26:33;22.68;44.70
74534;SHT31;63012;51.096;-115.366;2022-09-12T14:29:04;22.67;44.73
74534;SHT31;63012;51.096;-115.366;2022-09-12T14:35:12;22.65;44.77
74534;SHT31;63012;51.096;-115.366;2022-09-12T14:37:50;22.65;44.80
74534;SHT31;63012;51.096;-115.366;2022-09-12T14:40:22;22.63;44.79
74534;SHT31;63012;51.096;-115.366;2022-09-12T14:43:17;22.63;44.83
74534;SHT31;63012;51.096;-115.366;2022-09-12T14:49:36;22.61;44.90
74534;SHT31;63012;51.096;-115.366;2022-09-12T14:55:03;22.59;44.90
74534;SHT31;63012;51.096;-115.366;2022-09-12T14:58:25;22.59;44.90
74534;SHT31;63012;51.096;-115.366;2022-09-12T15:03:36;22.58;44.94
74534;SHT31;63012;51.096;-115.366;2022-09-12T15:06:19;22.57;44.92
74534;SHT31;63012;51.096;-115.366;2022-09-12T15:09:12;22.57;44.94
74534;SHT31;63012;51.096;-115.366;2022-09-12T15:11:52;22.56;44.93
74534;SHT31;63012;51.096;-115.366;2022-09-12T15:14:43;22.56;44.96
74534;SHT31;63012;51.096;-115.366;2022-09-12T15:17:23;22.54;44.97
74534;SHT31;63012;51.096;-115.366;2022-09-12T15:20:00;22.54;44.96
74534;SHT31;63012;51.096;-115.366;2022-09-12T15:22:48;22.53;44.96
74534;SHT31;63012;51.096;-115.366;2022-09-12T15:25:18;22.53;44.96
74534;SHT31;63012;51.096;-115.366;2022-09-12T15:27:58;22.52;44.99
74534;SHT31;63012;51.096;-115.366;2022-09-12T15:30:35;22.51;44.99
74534;SHT31;63012;51.096;-115.366;2022-09-12T15:33:13;22.51;45.00
74534;SHT31;63012;51.096;-115.366;2022-09-12T15:36:12;22.50;45.00
74534;SHT31;63012;51.096;-115.366;2022-09-12T15:38:44;22.50;45.06
74534;SHT31;63012;51.096;-115.366;2022-09-12T15:41:14;22.48;45.10
74534;SHT31;63012;51.096;-115.366;2022-09-12T15:43:48;22.47;45.10
74534;SHT31;63012;51.096;-115.366;2022-09-12T15:46:16;22.47;45.10
74534;SHT31;63012;51.096;-115.366;2022-09-12T15:48:47;22.47;45.09
74534;SHT31;63012;51.096;-115.366;2022-09-12T15:51:18;22.45;45.11
74534;SHT31;63012;51.096;-115.366;2022-09-12T15:56:38;22.45;45.12
74534;SHT31;63012;51.096;-115.366;2022-09-12T15:59:06;22.45;45.15
74534;SHT31;63012;51.096;-115.366;2022-09-12T16:01:50;22.44;45.16
74534;SHT31;63012;51.096;-115.366;2022-09-12T16:04:24;22.44;45.20
74534;SHT31;63012;51.096;-115.366;2022-09-12T16:06:54;22.43;45.20
74534;SHT31;63012;51.096;-115.366;2022-09-12T16:09:34;22.42;45.20
74534;SHT31;63012;51.096;-115.366;2022-09-12T16:12:01;22.42;45.21
74534;SHT31;63012;51.096;-115.366;2022-09-12T16:14:34;22.41;45.38
74534;SHT31;63012;51.096;-115.366;2022-09-12T16:17:05;22.40;45.46
74534;SHT31;63012;51.096;-115.366;2022-09-12T16:19:35;22.41;45.60
74534;SHT31;63012;51.096;-115.366;2022-09-12T16:22:06;22.41;45.65
74534;SHT31;63012;51.096;-115.366;2022-09-12T16:24:45;22.40;45.72
74534;SHT31;63012;51.096;-115.366;2022-09-12T16:27:24;22.39;45.72
74534;SHT31;63012;51.096;-115.366;2022-09-12T16:29:51;22.39;45.78
74534;SHT31;63012;51.096;-115.366;2022-09-12T16:32:27;22.38;45.75
74534;SHT31;63012;51.096;-115.366;2022-09-12T16:34:55;22.38;45.72
74534;SHT31;63012;51.096;-115.366;2022-09-12T16:37:22;22.37;45.70
74534;SHT31;63012;51.096;-115.366;2022-09-12T16:39:53;22.37;45.70
74534;SHT31;63012;51.096;-115.366;2022-09-12T16:42:21;22.37;45.66
74534;SHT31;63012;51.096;-115.366;2022-09-12T16:45:08;22.37;45.63
74534;SHT31;63012;51.096;-115.366;2022-09-12T16:47:36;22.38;45.60
74534;SHT31;63012;51.096;-115.366;2022-09-12T16:50:03;22.37;45.60
74534;SHT31;63012;51.096;-115.366;2022-09-12T16:52:34;22.39;45.58
74534;SHT31;63012;51.096;-115.366;2022-09-12T17:07:18;19.15;44.38
74534;SHT31;63012;51.096;-115.366;2022-09-12T17:09:45;18.42;45.33
74534;SHT31;63012;51.096;-115.366;2022-09-12T17:12:12;17.88;46.27
74534;SHT31;63012;51.096;-115.366;2022-09-12T17:14:39;17.46;47.10
74534;SHT31;63012;51.096;-115.366;2022-09-12T17:17:07;17.22;48.00
74534;SHT31;63012;51.096;-115.366;2022-09-12T17:19:34;17.04;48.59
74534;SHT31;63012;51.096;-115.366;2022-09-12T17:22:01;16.86;48.94
74534;SHT31;63012;51.096;-115.366;2022-09-12T17:24:28;16.81;49.60
74534;SHT31;63012;51.096;-115.366;2022-09-12T17:26:55;16.73;49.98
74534;SHT31;63012;51.096;-115.366;2022-09-12T17:29:23;16.63;50.26
74534;SHT31;63012;51.096;-115.366;2022-09-12T17:31:51;16.58;50.87
74534;SHT31;63012;51.096;-115.366;2022-09-12T17:34:19;16.55;50.71
74534;SHT31;63012;51.096;-115.366;2022-09-12T17:36:47;16.52;50.80
74534;SHT31;63012;51.096;-115.366;2022-09-12T17:39:14;16.48;50.73
74534;SHT31;63012;51.096;-115.366;2022-09-12T17:41:41;16.48;51.46
74534;SHT31;63012;51.096;-115.366;2022-09-12T17:44:11;16.49;51.31
74534;SHT31;63012;51.096;-115.366;2022-09-12T17:46:39;16.52;50.79
74534;SHT31;63012;51.096;-115.366;2022-09-12T17:49:09;16.58;50.96
74534;SHT31;63012;51.096;-115.366;2022-09-12T17:51:39;16.60;50.47
74534;SHT31;63012;51.096;-115.366;2022-09-12T17:54:15;16.58;50.15
74534;SHT31;63012;51.096;-115.366;2022-09-12T17:56:45;16.55;50.45
74534;SHT31;63012;51.096;-115.366;2022-09-12T17:59:18;16.53;50.89
74534;SHT31;63012;51.096;-115.366;2022-09-12T18:01:48;16.48;50.55
74534;SHT31;63012;51.096;-115.366;2022-09-12T18:04:34;16.42;49.99
74534;SHT31;63012;51.096;-115.366;2022-09-12T18:07:01;16.32;49.49
74534;SHT31;63012;51.096;-115.366;2022-09-12T18:09:28;16.25;49.51
74534;SHT31;63012;51.096;-115.366;2022-09-12T18:11:56;16.22;49.77
74534;SHT31;63012;51.096;-115.366;2022-09-12T18:14:23;16.19;50.09
74534;SHT31;63012;51.096;-115.366;2022-09-12T18:16:53;16.15;50.69
74534;SHT31;63012;51.096;-115.366;2022-09-12T18:19:21;16.13;50.76
74534;SHT31;63012;51.096;-115.366;2022-09-12T18:21:49;16.09;50.50
74534;SHT31;63012;51.096;-115.366;2022-09-12T18:24:15;16.11;50.79
74534;SHT31;63012;51.096;-115.366;2022-09-12T18:26:42;16.11;51.44
74534;SHT31;63012;51.096;-115.366;2022-09-12T18:29:10;16.11;51.55
74534;SHT31;63012;51.096;-115.366;2022-09-12T18:31:41;16.10;51.74
74534;SHT31;63012;51.096;-115.366;2022-09-12T18:34:10;16.15;51.72
74534;SHT31;63012;51.096;-115.366;2022-09-12T18:36:41;16.19;51.46